Time;durP1;ratioP1;P1;durP2;ratioP2;P2;SDS_P1;SDS_P2;PMS_P1;PMS_P2;Temp;Humidity;BMP_temperature;BMP_pressure;BME280_temperature;BME280_humidity;BME280_pressure;Samples;Min_cycle;Max_cycle;Signal;HPM_P1;HPM_P2
2022/10/15 00:01:46;;;;;;;;;;;;;;;13.57;72.31;95415.03;5035003;28;1034;-70
2022/10/15 00:04:12;;;;;;;;;;;;;;;13.53;73.00;95408.31;5035308;28;1049;-70
2022/10/15 00:06:38;;;;;;;;;;;;;;;13.52;72.60;95412.84;5035156;28;1017;-70
2022/10/15 00:09:04;;;;;;;;;;;;;;;13.55;71.86;95412.50;5033898;28;1980;-70
2022/10/15 00:11:30;;;;;;;;;;;;;;;13.46;71.36;95409.00;5034999;28;1033;-70
2022/10/15 00:13:58;;;;;;;;;;;;;;;13.21;71.92;95405.50;5035006;28;996;-70
2022/10/15 00:16:26;;;;;;;;;;;;;;;13.20;72.61;95397.63;5034729;28;1128;-70
2022/10/15 00:18:54;;;;;;;;;;;;;;;13.34;72.64;95398.81;5034875;28;1088;-70
2022/10/15 00:21:20;;;;;;;;;;;;;;;13.47;72.35;95399.13;5034717;28;1299;-70
2022/10/15 00:23:47;;;;;;;;;;;;;;;13.56;71.13;95397.22;5034795;28;982;-70
2022/10/15 00:26:18;;;;;;;;;;;;;;;13.48;71.36;95396.22;5034846;28;962;-70
2022/10/15 00:28:44;;;;;;;;;;;;;;;13.41;71.57;95397.94;5034544;28;1906;-70
2022/10/15 00:31:12;;;;;;;;;;;;;;;13.45;71.60;95390.41;5034536;28;1223;-70
2022/10/15 00:33:38;;;;;;;;;;;;;;;13.36;72.01;95389.56;5034473;28;1030;-70
2022/10/15 00:36:06;;;;;;;;;;;;;;;13.37;71.70;95387.72;5033241;28;1288;-70
2022/10/15 00:38:32;;;;;;;;;;;;;;;13.34;71.32;95390.75;5034485;28;1020;-70
2022/10/15 00:40:58;;;;;;;;;;;;;;;13.22;72.17;95396.47;5034472;28;1042;-70
2022/10/15 00:43:35;;;;;;;;;;;;;;;13.14;72.39;95387.56;5034386;28;1044;-70
2022/10/15 00:46:01;;;;;;;;;;;;;;;13.16;72.20;95382.88;5034528;28;1009;-70
2022/10/15 00:48:29;;;;;;;;;;;;;;;13.33;71.70;95375.63;5032960;28;1906;-70
2022/10/15 00:50:56;;;;;;;;;;;;;;;13.36;71.78;95369.94;5034270;28;1544;-70
2022/10/15 00:53:22;;;;;;;;;;;;;;;13.37;70.73;95374.28;5034187;28;1577;-70
2022/10/15 00:55:49;;;;;;;;;;;;;;;13.24;70.13;95372.97;5033149;28;1434;-71
2022/10/15 00:58:20;;;;;;;;;;;;;;;13.10;70.52;95373.66;5033791;28;1032;-71
2022/10/15 01:00:47;;;;;;;;;;;;;;;13.02;71.36;95381.72;5033723;28;1468;-71
2022/10/15 01:03:13;;;;;;;;;;;;;;;13.09;70.81;95375.50;5033969;28;1113;-71
2022/10/15 01:05:39;;;;;;;;;;;;;;;13.09;70.56;95375.50;5032837;28;1021;-71
2022/10/15 01:08:05;;;;;;;;;;;;;;;12.92;71.39;95378.38;5033909;28;1981;-70
2022/10/15 01:10:38;;;;;;;;;;;;;;;12.97;70.17;95376.84;5033891;28;1017;-70
2022/10/15 01:13:13;;;;;;;;;;;;;;;12.87;69.90;95381.59;5034091;28;1028;-70
2022/10/15 01:15:45;;;;;;;;;;;;;;;12.79;70.03;95373.56;5033938;28;1036;-71
2022/10/15 01:18:14;;;;;;;;;;;;;;;12.86;70.31;95380.75;5033777;28;1034;-70
2022/10/15 01:20:46;;;;;;;;;;;;;;;12.91;70.24;95382.09;5033709;28;961;-71
2022/10/15 01:23:12;;;;;;;;;;;;;;;12.91;69.85;95382.09;5033604;28;1089;-71
2022/10/15 01:25:50;;;;;;;;;;;;;;;12.86;70.20;95386.13;5032421;28;1069;-71
2022/10/15 01:28:35;;;;;;;;;;;;;;;12.91;70.89;95382.09;5033601;28;1987;-71
2022/10/15 01:31:07;;;;;;;;;;;;;;;12.92;70.75;95381.91;5032422;28;1123;-71
2022/10/15 01:33:53;;;;;;;;;;;;;;;12.82;70.70;95378.56;5033543;28;997;-71
2022/10/15 01:36:29;;;;;;;;;;;;;;;12.65;71.70;95373.22;5033615;28;1087;-71
2022/10/15 01:39:21;;;;;;;;;;;;;;;12.85;71.78;95375.56;5033341;28;1037;-70
2022/10/15 01:42:07;;;;;;;;;;;;;;;13.08;71.18;95370.31;5017566;28;1245;-70
2022/10/15 01:44:37;;;;;;;;;;;;;;;13.13;71.15;95383.19;5026208;28;1152;-71
2022/10/15 01:47:05;;;;;;;;;;;;;;;13.13;69.85;95381.38;5033300;28;1910;-71
2022/10/15 01:49:37;;;;;;;;;;;;;;;13.32;71.00;95385.56;5033167;28;1547;-70
2022/10/15 01:52:07;;;;;;;;;;;;;;;13.44;70.27;95388.69;5033385;28;1037;-70
2022/10/15 01:54:35;;;;;;;;;;;;;;;13.40;70.44;95390.91;5033176;28;1006;-70
2022/10/15 01:57:02;;;;;;;;;;;;;;;13.41;70.46;95387.22;5033224;28;1026;-71
2022/10/15 01:59:30;;;;;;;;;;;;;;;13.51;70.14;95388.81;5033387;28;974;-70
2022/10/15 02:01:57;;;;;;;;;;;;;;;13.44;68.12;95389.53;5033359;28;1052;-69
2022/10/15 02:04:24;;;;;;;;;;;;;;;13.56;69.11;95395.34;5032152;28;1018;-70
2022/10/15 02:07:02;;;;;;;;;;;;;;;13.70;68.43;95398.31;5033136;28;1910;-70
2022/10/15 02:09:31;;;;;;;;;;;;;;;13.78;67.72;95383.03;5033016;28;1050;-70
2022/10/15 02:12:16;;;;;;;;;;;;;;;13.82;68.96;95386.19;5037014;28;1100;-70
2022/10/15 02:14:57;;;;;;;;;;;;;;;13.80;68.49;95383.69;5037208;28;1025;-71
2022/10/15 02:17:30;;;;;;;;;;;;;;;13.75;66.75;95385.22;5037063;28;1126;-71
2022/10/15 02:20:03;;;;;;;;;;;;;;;13.82;67.38;95381.66;5037413;28;1017;-71
2022/10/15 02:22:42;;;;;;;;;;;;;;;13.82;67.06;95387.03;5037039;28;1104;-70
2022/10/15 02:25:13;;;;;;;;;;;;;;;13.77;66.44;95378.66;5037127;28;1052;-71
2022/10/15 02:27:39;;;;;;;;;;;;;;;13.90;66.94;95375.41;5035740;28;1910;-70
2022/10/15 02:30:07;;;;;;;;;;;;;;;13.97;67.10;95383.59;5036842;28;1041;-70
2022/10/15 02:32:34;;;;;;;;;;;;;;;14.00;67.71;95383.22;5036819;28;1136;-70
2022/10/15 02:35:01;;;;;;;;;;;;;;;13.93;68.09;95385.81;5036668;28;1124;-71
2022/10/15 02:37:28;;;;;;;;;;;;;;;13.95;68.43;95380.25;5036807;28;1044;-71
2022/10/15 02:39:54;;;;;;;;;;;;;;;13.91;68.06;95378.94;5035528;28;1105;-71
2022/10/15 02:42:20;;;;;;;;;;;;;;;13.79;68.13;95371.28;5036625;28;1104;-70
2022/10/15 02:44:46;;;;;;;;;;;;;;;13.74;69.18;95375.50;5036547;28;1017;-71
2022/10/15 02:47:13;;;;;;;;;;;;;;;13.76;69.00;95382.34;5036427;28;1914;-70
2022/10/15 02:49:39;;;;;;;;;;;;;;;13.56;69.81;95381.09;5036548;28;1636;-70
2022/10/15 02:52:05;;;;;;;;;;;;;;;13.62;69.27;95385.78;5036438;28;1100;-70
2022/10/15 02:54:31;;;;;;;;;;;;;;;13.50;68.52;95382.63;5036499;28;1043;-70
2022/10/15 02:56:57;;;;;;;;;;;;;;;13.36;69.18;95381.50;5036502;28;982;-70
2022/10/15 02:59:23;;;;;;;;;;;;;;;13.32;69.28;95396.28;5036263;28;1042;-70
2022/10/15 03:01:49;;;;;;;;;;;;;;;13.24;69.18;95390.91;5036514;28;976;-70
2022/10/15 03:04:15;;;;;;;;;;;;;;;13.14;68.86;95387.56;5035072;28;1096;-69
2022/10/15 03:06:41;;;;;;;;;;;;;;;13.08;69.47;95386.41;5036268;28;1056;-70
2022/10/15 03:09:07;;;;;;;;;;;;;;;12.82;70.00;95384.75;5036219;28;1985;-70
2022/10/15 03:11:33;;;;;;;;;;;;;;;12.83;70.58;95388.31;5036109;28;1080;-70
2022/10/15 03:13:59;;;;;;;;;;;;;;;13.01;69.37;95383.59;5036093;28;1056;-69
2022/10/15 03:16:25;;;;;;;;;;;;;;;12.76;70.33;95379.25;5035911;28;1101;-69
2022/10/15 03:18:51;;;;;;;;;;;;;;;12.63;70.65;95385.94;5036190;28;1037;-70
2022/10/15 03:21:17;;;;;;;;;;;;;;;12.75;70.02;95382.91;5035941;28;974;-70
2022/10/15 03:23:43;;;;;;;;;;;;;;;12.86;69.85;95388.81;5035493;28;1064;-70
2022/10/15 03:26:09;;;;;;;;;;;;;;;12.86;69.38;95383.44;5035811;28;1476;-70
2022/10/15 03:28:35;;;;;;;;;;;;;;;12.83;69.52;95393.66;5035626;28;1992;-69
2022/10/15 03:31:01;;;;;;;;;;;;;;;12.91;69.29;95399.00;5036014;28;1056;-70
2022/10/15 03:33:27;;;;;;;;;;;;;;;12.68;69.89;95385.44;5035612;28;1034;-69
2022/10/15 03:35:53;;;;;;;;;;;;;;;12.74;69.72;95387.44;5035590;28;1181;-69
2022/10/15 03:38:20;;;;;;;;;;;;;;;12.72;69.01;95383.28;5035701;28;1121;-70
2022/10/15 03:40:46;;;;;;;;;;;;;;;12.71;68.97;95395.84;5034326;28;1057;-69
2022/10/15 03:43:12;;;;;;;;;;;;;;;12.68;68.91;95391.66;5035533;28;1049;-69
2022/10/15 03:45:38;;;;;;;;;;;;;;;12.69;69.26;95393.34;5035484;28;1053;-73
2022/10/15 03:48:04;;;;;;;;;;;;;;;12.62;68.58;95397.69;5035634;28;1906;-70
2022/10/15 03:50:30;;;;;;;;;;;;;;;12.59;69.47;95400.69;5035400;28;1599;-69
2022/10/15 03:52:56;;;;;;;;;;;;;;;12.56;68.87;95405.56;5035462;28;1004;-70
2022/10/15 03:55:22;;;;;;;;;;;;;;;12.52;69.23;95397.03;5035306;28;809;-70
2022/10/15 03:57:48;;;;;;;;;;;;;;;12.53;68.67;95403.22;5035197;28;1057;-70
2022/10/15 04:00:14;;;;;;;;;;;;;;;12.51;68.98;95403.38;5034347;28;1049;-70
2022/10/15 04:02:40;;;;;;;;;;;;;;;12.52;68.82;95404.22;5035266;28;1035;-69
2022/10/15 04:05:06;;;;;;;;;;;;;;;12.44;68.90;95400.53;5033982;28;1058;-70
2022/10/15 04:07:32;;;;;;;;;;;;;;;12.32;68.78;95404.53;5035076;28;1914;-70
2022/10/15 04:09:58;;;;;;;;;;;;;;;12.20;69.13;95409.41;5035155;28;1033;-70
2022/10/15 04:12:24;;;;;;;;;;;;;;;12.14;69.51;95404.69;5035012;28;1035;-70
2022/10/15 04:14:50;;;;;;;;;;;;;;;12.05;70.47;95408.34;5034881;28;1065;-69
2022/10/15 04:17:16;;;;;;;;;;;;;;;12.16;70.22;95409.88;5035133;28;1123;-69
2022/10/15 04:19:42;;;;;;;;;;;;;;;12.22;70.32;95412.75;5034891;28;1005;-69
2022/10/15 04:22:08;;;;;;;;;;;;;;;12.28;69.98;95411.25;5034812;28;926;-69
2022/10/15 04:24:34;;;;;;;;;;;;;;;12.36;69.04;95405.06;5034824;28;1032;-69
2022/10/15 04:27:00;;;;;;;;;;;;;;;12.09;69.61;95402.50;5034548;28;1903;-69
2022/10/15 04:29:26;;;;;;;;;;;;;;;12.07;69.93;95409.88;5034518;28;1091;-69
2022/10/15 04:31:52;;;;;;;;;;;;;;;11.95;70.22;95402.28;5034821;28;1021;-69
2022/10/15 04:34:18;;;;;;;;;;;;;;;11.86;71.02;95406.75;5033546;28;1180;-69
2022/10/15 04:36:44;;;;;;;;;;;;;;;12.09;70.06;95405.16;5034600;28;1009;-69
2022/10/15 04:39:10;;;;;;;;;;;;;;;12.13;70.47;95411.03;5034567;28;973;-69
2022/10/15 04:41:36;;;;;;;;;;;;;;;12.27;70.07;95413.09;5033272;28;977;-70
2022/10/15 04:44:03;;;;;;;;;;;;;;;12.21;69.20;95424.47;5034429;28;1065;-69
2022/10/15 04:46:29;;;;;;;;;;;;;;;12.11;69.41;95423.78;5034444;28;1009;-68
2022/10/15 04:48:56;;;;;;;;;;;;;;;12.11;70.16;95426.47;5034125;28;1910;-69
2022/10/15 04:51:23;;;;;;;;;;;;;;;12.22;70.21;95425.31;5034063;28;1535;-69
2022/10/15 04:53:49;;;;;;;;;;;;;;;12.16;69.91;95432.16;5034181;28;966;-69
2022/10/15 04:56:16;;;;;;;;;;;;;;;12.05;71.26;95429.78;5034129;28;1052;-69
2022/10/15 04:58:43;;;;;;;;;;;;;;;12.12;71.35;95417.41;5033924;28;1011;-69
2022/10/15 05:01:11;;;;;;;;;;;;;;;12.00;72.42;95430.28;5033035;28;965;-69
2022/10/15 05:03:38;;;;;;;;;;;;;;;12.18;71.58;95430.16;5034030;28;1339;-77
2022/10/15 05:06:08;;;;;;;;;;;;;;;12.22;70.64;95425.31;5034011;28;1040;-70
2022/10/15 05:08:35;;;;;;;;;;;;;;;12.23;70.57;95430.50;5033785;28;1910;-68
2022/10/15 05:11:03;;;;;;;;;;;;;;;12.25;70.86;95436.53;5016495;28;1669;-69
2022/10/15 05:13:29;;;;;;;;;;;;;;;12.23;71.44;95440.38;5033711;28;1046;-68
2022/10/15 05:15:55;;;;;;;;;;;;;;;12.28;71.54;95430.84;5033969;28;1036;-68
2022/10/15 05:18:22;;;;;;;;;;;;;;;12.09;72.74;95442.69;5033947;28;1012;-69
2022/10/15 05:20:47;;;;;;;;;;;;;;;12.26;72.29;95442.75;5033779;28;1025;-69
2022/10/15 05:23:15;;;;;;;;;;;;;;;12.40;71.70;95447.44;5033749;28;1056;-68
2022/10/15 05:25:41;;;;;;;;;;;;;;;12.39;72.57;95445.78;5033530;28;1023;-69
2022/10/15 05:28:08;;;;;;;;;;;;;;;12.41;72.56;95440.25;5033788;28;1910;-81
2022/10/15 05:30:35;;;;;;;;;;;;;;;12.54;72.11;95445.97;5033465;28;1049;-68
2022/10/15 05:33:01;;;;;;;;;;;;;;;12.65;71.87;95452.84;5033465;28;1050;-68
2022/10/15 05:35:27;;;;;;;;;;;;;;;12.67;71.75;95456.19;5033381;28;1140;-69
2022/10/15 05:37:53;;;;;;;;;;;;;;;12.63;72.27;95465.59;5033529;28;990;-69
2022/10/15 05:40:19;;;;;;;;;;;;;;;12.56;72.29;95460.06;5033418;28;1047;-68
2022/10/15 05:42:49;;;;;;;;;;;;;;;12.58;73.38;95468.78;5033614;28;1048;-69
2022/10/15 05:45:15;;;;;;;;;;;;;;;12.73;72.97;95470.78;5033350;28;966;-69
2022/10/15 05:47:41;;;;;;;;;;;;;;;12.85;73.12;95470.31;5033393;28;1910;-68
2022/10/15 05:50:07;;;;;;;;;;;;;;;12.88;73.62;95471.78;5033332;28;1572;-69
2022/10/15 05:52:33;;;;;;;;;;;;;;;12.97;73.21;95473.47;5032099;28;993;-69
2022/10/15 05:54:59;;;;;;;;;;;;;;;13.03;73.24;95472.84;5033227;28;1033;-69
2022/10/15 05:57:25;;;;;;;;;;;;;;;13.01;73.68;95472.16;5033189;28;1050;-69
2022/10/15 05:59:51;;;;;;;;;;;;;;;13.01;73.22;95473.97;5033280;28;1120;-70
2022/10/15 06:02:17;;;;;;;;;;;;;;;13.03;73.68;95480.03;5033385;28;1077;-69
2022/10/15 06:04:43;;;;;;;;;;;;;;;13.09;73.62;95476.69;5033077;28;1104;-69
2022/10/15 06:07:09;;;;;;;;;;;;;;;13.08;73.75;95489.25;5031972;28;1906;-68
2022/10/15 06:09:35;;;;;;;;;;;;;;;12.98;74.66;95485.06;5033057;28;1065;-68
2022/10/15 06:12:01;;;;;;;;;;;;;;;13.14;73.80;95485.06;5033405;28;1190;-68
2022/10/15 06:14:29;;;;;;;;;;;;;;;13.18;73.64;95490.94;5033316;28;1093;-68
2022/10/15 06:16:55;;;;;;;;;;;;;;;13.21;73.84;95501.34;5033202;28;1213;-69
2022/10/15 06:19:21;;;;;;;;;;;;;;;13.33;73.91;95500.00;5033219;28;970;-68
2022/10/15 06:21:47;;;;;;;;;;;;;;;13.37;73.23;95503.19;5033051;28;1056;-69
2022/10/15 06:24:15;;;;;;;;;;;;;;;13.21;73.95;95501.34;5031900;28;1035;-70
2022/10/15 06:26:41;;;;;;;;;;;;;;;13.21;74.28;95495.97;5033198;28;973;-70
2022/10/15 06:29:08;;;;;;;;;;;;;;;13.24;74.32;95500.97;5033103;28;1915;-69
2022/10/15 06:31:34;;;;;;;;;;;;;;;13.38;74.18;95518.31;5033051;28;1026;-70
2022/10/15 06:34:00;;;;;;;;;;;;;;;13.63;73.44;95522.63;5032903;28;1096;-71
2022/10/15 06:36:26;;;;;;;;;;;;;;;13.69;73.91;95521.09;5032883;28;1081;-69
2022/10/15 06:38:52;;;;;;;;;;;;;;;13.68;73.74;95519.44;5032917;28;1041;-70
2022/10/15 06:41:18;;;;;;;;;;;;;;;13.75;72.95;95522.25;5032889;28;1057;-69
2022/10/15 06:43:47;;;;;;;;;;;;;;;13.85;72.53;95518.38;5033011;28;985;-70
2022/10/15 06:46:13;;;;;;;;;;;;;;;14.05;72.02;95520.66;5032815;28;1057;-70
2022/10/15 06:48:39;;;;;;;;;;;;;;;14.03;72.30;95525.38;5032564;28;1996;-70
2022/10/15 06:51:05;;;;;;;;;;;;;;;14.12;72.25;95527.03;5032792;28;1617;-69
2022/10/15 06:53:31;;;;;;;;;;;;;;;14.18;72.96;95522.81;5032718;28;1061;-69
2022/10/15 06:55:57;;;;;;;;;;;;;;;14.06;71.53;95528.56;5032656;28;1112;-69
2022/10/15 06:58:23;;;;;;;;;;;;;;;14.19;71.80;95519.09;5035459;28;1048;-69
2022/10/15 07:00:49;;;;;;;;;;;;;;;14.27;71.79;95529.00;5036478;28;949;-69
2022/10/15 07:03:15;;;;;;;;;;;;;;;14.32;71.67;95527.44;5036208;28;1089;-69
2022/10/15 07:05:41;;;;;;;;;;;;;;;14.31;71.53;95525.78;5036223;28;1060;-69
2022/10/15 07:08:08;;;;;;;;;;;;;;;14.27;70.68;95542.44;5036117;28;1902;-69
2022/10/15 07:10:34;;;;;;;;;;;;;;;14.31;70.80;95538.41;5035974;28;1024;-69
2022/10/15 07:13:00;;;;;;;;;;;;;;;14.48;70.62;95537.31;5036262;28;1072;-69
2022/10/15 07:15:27;;;;;;;;;;;;;;;14.59;69.47;95523.47;5036099;28;1003;-69
2022/10/15 07:18:00;;;;;;;;;;;;;;;14.57;69.48;95520.13;5036101;28;966;-69
2022/10/15 07:20:27;;;;;;;;;;;;;;;14.89;68.59;95534.41;5034828;28;946;-69
2022/10/15 07:23:00;;;;;;;;;;;;;;;15.17;68.94;95531.16;5035863;28;1031;-69
2022/10/15 07:25:26;;;;;;;;;;;;;;;15.52;67.09;95524.31;5035766;28;1050;-69
2022/10/15 07:27:54;;;;;;;;;;;;;;;15.85;66.70;95531.28;5035881;28;1902;-69
2022/10/15 07:30:21;;;;;;;;;;;;;;;16.06;65.63;95530.53;5035892;28;966;-68
2022/10/15 07:32:47;;;;;;;;;;;;;;;16.10;64.21;95524.56;5035714;28;1012;-69
2022/10/15 07:35:13;;;;;;;;;;;;;;;16.20;64.81;95527.84;5035528;28;1245;-68
2022/10/15 07:37:39;;;;;;;;;;;;;;;16.47;62.93;95525.47;5035528;28;1028;-68
2022/10/15 07:40:05;;;;;;;;;;;;;;;16.62;62.51;95524.59;5035529;28;1050;-68
2022/10/15 07:42:32;;;;;;;;;;;;;;;17.00;63.46;95521.72;5035641;28;1032;-69
2022/10/15 07:44:58;;;;;;;;;;;;;;;17.31;61.63;95521.44;5035515;28;1041;-69
2022/10/15 07:47:24;;;;;;;;;;;;;;;17.44;59.54;95526.13;5035271;28;1910;-69
2022/10/15 07:49:50;;;;;;;;;;;;;;;17.27;59.08;95518.28;5035366;28;1581;-69
2022/10/15 07:52:16;;;;;;;;;;;;;;;16.91;60.19;95521.03;5035312;28;1026;-69
2022/10/15 07:54:42;;;;;;;;;;;;;;;16.80;62.10;95522.34;5035444;28;986;-69
2022/10/15 07:57:08;;;;;;;;;;;;;;;16.94;62.49;95517.94;5035210;28;1101;-69
2022/10/15 07:59:34;;;;;;;;;;;;;;;16.88;62.15;95513.31;5034170;28;978;-69
2022/10/15 08:02:00;;;;;;;;;;;;;;;16.75;62.96;95519.34;5035224;28;1018;-69
2022/10/15 08:04:26;;;;;;;;;;;;;;;16.63;62.68;95519.03;5035079;28;1049;-69
2022/10/15 08:06:52;;;;;;;;;;;;;;;16.83;63.42;95523.84;5035022;28;1072;-69
2022/10/15 08:09:19;;;;;;;;;;;;;;;16.75;61.51;95524.75;5034816;28;2008;-69
2022/10/15 08:11:45;;;;;;;;;;;;;;;17.64;60.38;95521.72;5034901;28;1128;-69
2022/10/15 08:14:11;;;;;;;;;;;;;;;18.35;58.84;95515.31;5035122;28;966;-68
2022/10/15 08:16:37;;;;;;;;;;;;;;;18.61;56.96;95519.19;5034860;28;1025;-69
2022/10/15 08:19:03;;;;;;;;;;;;;;;18.91;56.18;95525.16;5034935;28;1121;-68
2022/10/15 08:21:29;;;;;;;;;;;;;;;19.21;55.24;95512.09;5034708;28;1045;-69
2022/10/15 08:23:54;;;;;;;;;;;;;;;19.11;54.37;95514.38;5035001;28;1040;-69
2022/10/15 08:26:21;;;;;;;;;;;;;;;19.50;54.48;95512.72;5034950;28;1012;-68
2022/10/15 08:28:47;;;;;;;;;;;;;;;19.23;54.87;95507.28;5034640;28;1907;-69
2022/10/15 08:31:13;;;;;;;;;;;;;;;19.54;53.43;95507.72;5033532;28;966;-69
2022/10/15 08:33:39;;;;;;;;;;;;;;;19.36;54.10;95508.38;5034517;28;1048;-69
2022/10/15 08:36:06;;;;;;;;;;;;;;;18.78;56.98;95520.50;5034285;28;1316;-69
2022/10/15 08:38:32;;;;;;;;;;;;;;;18.29;58.37;95519.66;5034348;28;1050;-69
2022/10/15 08:40:59;;;;;;;;;;;;;;;18.20;58.27;95515.44;5034336;28;1539;-69
2022/10/15 08:43:36;;;;;;;;;;;;;;;17.75;60.61;95509.50;5034515;28;997;-69
2022/10/15 08:46:04;;;;;;;;;;;;;;;17.47;62.11;95514.91;5034332;28;1003;-69
2022/10/15 08:48:37;;;;;;;;;;;;;;;17.87;60.70;95517.94;5034108;28;1989;-69
2022/10/15 08:51:08;;;;;;;;;;;;;;;19.06;55.69;95517.69;5034370;28;1767;-69
2022/10/15 08:53:44;;;;;;;;;;;;;;;18.60;55.87;95522.94;5034144;28;1120;-70
2022/10/15 08:56:16;;;;;;;;;;;;;;;18.17;56.46;95523.97;5034281;28;977;-69
2022/10/15 08:59:00;;;;;;;;;;;;;;;19.11;55.04;95519.78;5034109;28;984;-68
2022/10/15 09:01:32;;;;;;;;;;;;;;;19.25;54.24;95510.63;5034205;28;1029;-69
2022/10/15 09:04:03;;;;;;;;;;;;;;;19.14;54.92;95513.94;5034222;28;1017;-69
2022/10/15 09:06:32;;;;;;;;;;;;;;;18.38;55.44;95514.06;5034051;28;1035;-69
2022/10/15 09:09:17;;;;;;;;;;;;;;;19.57;53.81;95520.88;5033858;28;1910;-69
2022/10/15 09:11:43;;;;;;;;;;;;;;;18.80;54.80;95518.47;5033716;28;1101;-69
2022/10/15 09:14:13;;;;;;;;;;;;;;;19.28;54.78;95509.41;5034040;28;1041;-69
2022/10/15 09:16:41;;;;;;;;;;;;;;;19.00;55.55;95515.78;5033800;28;1098;-69
2022/10/15 09:19:14;;;;;;;;;;;;;;;19.43;54.04;95506.50;5033678;28;1278;-70
2022/10/15 09:21:41;;;;;;;;;;;;;;;19.54;52.25;95514.00;5033426;28;1041;-69
2022/10/15 09:24:12;;;;;;;;;;;;;;;19.52;53.21;95507.97;5033670;28;1274;-68
2022/10/15 09:26:57;;;;;;;;;;;;;;;19.18;55.06;95507.09;5033847;28;1016;-69
2022/10/15 09:29:24;;;;;;;;;;;;;;;18.65;56.60;95510.47;5033654;28;1989;-69
2022/10/15 09:32:06;;;;;;;;;;;;;;;18.43;56.53;95515.16;5033574;28;977;-69
2022/10/15 09:34:36;;;;;;;;;;;;;;;18.13;57.39;95511.88;5032245;28;1106;-68
2022/10/15 09:37:32;;;;;;;;;;;;;;;17.94;56.61;95513.41;5033571;28;1101;-69
2022/10/15 09:40:16;;;;;;;;;;;;;;;17.70;57.85;95512.81;5024672;28;1104;-69
2022/10/15 09:42:43;;;;;;;;;;;;;;;17.64;58.25;95513.63;5033487;28;1016;-69
2022/10/15 09:45:10;;;;;;;;;;;;;;;17.58;58.70;95506.25;5033490;28;962;-69
2022/10/15 09:47:38;;;;;;;;;;;;;;;17.53;57.89;95517.69;5033368;28;1985;-69
2022/10/15 09:50:06;;;;;;;;;;;;;;;17.47;57.53;95512.19;5033503;28;1633;-69
2022/10/15 09:52:32;;;;;;;;;;;;;;;17.47;58.46;95504.94;5032213;28;1092;-69
2022/10/15 09:55:05;;;;;;;;;;;;;;;17.48;57.35;95503.91;5033325;28;1052;-69
2022/10/15 09:57:32;;;;;;;;;;;;;;;17.56;57.76;95508.31;5032514;28;1860;-68
2022/10/15 10:00:00;;;;;;;;;;;;;;;17.70;57.47;95503.84;5033185;28;1058;-71
2022/10/15 10:02:26;;;;;;;;;;;;;;;17.85;57.84;95501.06;5028211;28;1711;-68
2022/10/15 10:04:52;;;;;;;;;;;;;;;17.93;59.08;95500.94;5019419;28;1450;-68
2022/10/15 10:07:27;;;;;;;;;;;;;;;17.97;58.63;95495.97;5033209;28;1910;-68
2022/10/15 10:09:55;;;;;;;;;;;;;;;17.97;56.65;95496.81;5029700;28;2067;-68
2022/10/15 10:12:31;;;;;;;;;;;;;;;18.04;56.92;95504.94;5025558;28;1799;-71
2022/10/15 10:14:59;;;;;;;;;;;;;;;18.07;55.60;95502.69;5028621;28;2038;-69
2022/10/15 10:17:26;;;;;;;;;;;;;;;18.12;57.79;95505.63;5033164;28;989;-68
2022/10/15 10:20:07;;;;;;;;;;;;;;;18.09;58.75;95494.38;5033159;28;938;-69
2022/10/15 10:22:42;;;;;;;;;;;;;;;18.07;59.01;95497.25;5033028;28;1235;-69
2022/10/15 10:25:27;;;;;;;;;;;;;;;18.08;56.84;95503.50;5031899;28;1132;-69
2022/10/15 10:28:14;;;;;;;;;;;;;;;18.11;58.26;95492.28;5033096;28;1983;-69
2022/10/15 10:30:49;;;;;;;;;;;;;;;18.04;55.57;95489.56;5013363;28;1082;-70
2022/10/15 10:33:20;;;;;;;;;;;;;;;18.03;58.15;95490.59;5023694;28;1034;-70
2022/10/15 10:35:48;;;;;;;;;;;;;;;18.05;55.55;95488.50;5036764;28;1093;-69
2022/10/15 10:38:26;;;;;;;;;;;;;;;18.08;55.63;95492.69;5036786;28;1037;-69
2022/10/15 10:40:54;;;;;;;;;;;;;;;18.09;56.21;95484.38;5036613;28;1104;-70
2022/10/15 10:43:22;;;;;;;;;;;;;;;18.17;57.38;95488.78;5036630;28;1058;-70
2022/10/15 10:45:57;;;;;;;;;;;;;;;18.22;56.12;95482.78;5036479;28;965;-69
2022/10/15 10:48:25;;;;;;;;;;;;;;;18.26;57.15;95487.59;5036514;28;1979;-68
2022/10/15 10:51:11;;;;;;;;;;;;;;;18.22;58.64;95472.78;5033781;28;1656;-69
2022/10/15 10:53:43;;;;;;;;;;;;;;;18.25;57.01;95468.84;5034867;28;1833;-69
2022/10/15 10:56:12;;;;;;;;;;;;;;;18.20;56.69;95474.03;5036164;28;1396;-70
2022/10/15 10:58:38;;;;;;;;;;;;;;;18.25;57.20;95471.53;5036576;28;1040;-69
2022/10/15 11:01:04;;;;;;;;;;;;;;;18.27;55.34;95474.91;5036353;28;1910;-69
2022/10/15 11:03:41;;;;;;;;;;;;;;;18.18;57.26;95471.53;5031173;28;967;-70
2022/10/15 11:06:07;;;;;;;;;;;;;;;18.11;57.58;95468.78;5016585;28;986;-69
2022/10/15 11:08:40;;;;;;;;;;;;;;;18.20;58.08;95469.44;5016386;28;1902;-68
2022/10/15 11:11:20;;;;;;;;;;;;;;;18.25;56.04;95461.56;5016420;28;1563;-68
2022/10/15 11:13:51;;;;;;;;;;;;;;;18.32;56.74;95456.16;5016506;28;1041;-69
2022/10/15 11:16:32;;;;;;;;;;;;;;;18.35;55.18;95455.78;5016416;28;1315;-69
2022/10/15 11:19:14;;;;;;;;;;;;;;;18.38;54.62;95458.06;5016181;28;1045;-68
2022/10/15 11:21:52;;;;;;;;;;;;;;;18.36;55.92;95457.44;5016491;28;1043;-68
2022/10/15 11:24:29;;;;;;;;;;;;;;;18.35;57.23;95461.19;5016332;28;1017;-69
2022/10/15 11:27:16;;;;;;;;;;;;;;;18.39;55.63;95454.34;5016217;28;993;-68
2022/10/15 11:29:53;;;;;;;;;;;;;;;18.43;53.69;95454.75;5016009;28;954;-70
2022/10/15 11:32:38;;;;;;;;;;;;;;;18.45;55.76;95453.50;5015113;28;1053;-69
2022/10/15 11:35:19;;;;;;;;;;;;;;;18.48;55.24;95434.16;5014653;28;1130;-69
2022/10/15 11:37:48;;;;;;;;;;;;;;;18.52;55.42;95440.84;5015934;28;1029;-69
2022/10/15 11:40:35;;;;;;;;;;;;;;;18.59;54.94;95432.75;5014728;28;1317;-68
2022/10/15 11:43:06;;;;;;;;;;;;;;;18.60;54.76;95436.28;5015217;28;1105;-68
2022/10/15 11:45:47;;;;;;;;;;;;;;;18.56;53.23;95429.63;5031178;28;954;-68
2022/10/15 11:48:20;;;;;;;;;;;;;;;18.43;55.36;95423.09;5015784;28;2007;-70
2022/10/15 11:50:52;;;;;;;;;;;;;;;18.46;56.37;95419.19;5027413;28;1641;-70
2022/10/15 11:53:18;;;;;;;;;;;;;;;18.53;53.44;95420.88;5035483;28;1128;-68
2022/10/15 11:55:44;;;;;;;;;;;;;;;18.55;52.79;95417.94;5035311;28;1049;-70
2022/10/15 11:58:14;;;;;;;;;;;;;;;18.54;54.80;95421.69;5035416;28;1069;-69
2022/10/15 12:00:47;;;;;;;;;;;;;;;18.51;55.17;95422.91;5035303;28;1036;-69
2022/10/15 12:03:13;;;;;;;;;;;;;;;18.52;55.89;95421.88;5035340;28;1072;-69
2022/10/15 12:05:48;;;;;;;;;;;;;;;18.49;55.14;95419.56;5035163;28;1288;-69
2022/10/15 12:08:15;;;;;;;;;;;;;;;18.47;52.57;95416.25;5035253;28;1985;-69
2022/10/15 12:10:47;;;;;;;;;;;;;;;18.52;54.83;95415.66;5035112;28;1013;-69
2022/10/15 12:13:19;;;;;;;;;;;;;;;18.56;54.01;95416.06;5035130;28;1087;-69
2022/10/15 12:15:49;;;;;;;;;;;;;;;18.44;55.17;95419.38;5034958;28;1049;-68
2022/10/15 12:18:34;;;;;;;;;;;;;;;18.45;54.96;95412.91;5035177;28;1045;-69
2022/10/15 12:21:00;;;;;;;;;;;;;;;18.49;54.36;95416.03;5034956;28;1060;-69
2022/10/15 12:23:35;;;;;;;;;;;;;;;18.52;53.80;95407.53;5034845;28;1109;-70
2022/10/15 12:26:01;;;;;;;;;;;;;;;18.50;51.39;95406.91;5034702;28;1052;-69
2022/10/15 12:28:30;;;;;;;;;;;;;;;18.51;53.76;95403.13;5034689;28;1906;-70
2022/10/15 12:30:59;;;;;;;;;;;;;;;18.48;53.52;95403.56;5034644;28;1041;-70
2022/10/15 12:33:33;;;;;;;;;;;;;;;18.45;53.92;95404.78;5033517;28;1042;-70
2022/10/15 12:36:01;;;;;;;;;;;;;;;18.50;50.79;95398.78;5034433;28;1272;-70
2022/10/15 12:38:32;;;;;;;;;;;;;;;18.52;52.62;95402.94;5034638;28;925;-70
2022/10/15 12:41:03;;;;;;;;;;;;;;;18.56;51.86;95399.81;5034675;28;1039;-70
2022/10/15 12:43:30;;;;;;;;;;;;;;;18.56;52.04;95403.38;5034708;28;1087;-70
2022/10/15 12:45:58;;;;;;;;;;;;;;;18.62;52.87;95399.00;5033332;28;1051;-70
2022/10/15 12:48:29;;;;;;;;;;;;;;;18.68;52.36;95396.28;5034410;28;1930;-70
2022/10/15 12:51:14;;;;;;;;;;;;;;;18.69;52.92;95394.44;5034215;28;1700;-69
2022/10/15 12:53:40;;;;;;;;;;;;;;;18.59;54.00;95394.84;5034440;28;981;-69
2022/10/15 12:56:12;;;;;;;;;;;;;;;18.56;53.24;95394.41;5032395;28;969;-74
2022/10/15 12:58:39;;;;;;;;;;;;;;;18.52;53.53;95392.09;5034159;28;998;-75
2022/10/15 13:01:06;;;;;;;;;;;;;;;18.52;51.14;95386.69;5016812;28;1623;-69
2022/10/15 13:03:34;;;;;;;;;;;;;;;18.53;51.48;95385.66;5034093;28;1218;-69
2022/10/15 13:06:18;;;;;;;;;;;;;;;18.51;52.62;95387.72;5033905;28;1050;-69
2022/10/15 13:08:54;;;;;;;;;;;;;;;18.47;53.17;95381.03;5034042;28;1910;-69